Tenoumaru — JM6583 — position and weather

sailwx.info

Track history (hours):
 
Tides and Currents Weather Stations Pressure Air Temp Water Temp Dewpoint Dewpoint Depression Visibility Wind Speed Wind Dir Waves Ship Positions

Tenoumaru

Last reported at 2017-Dec-11 16:09 UTC. Time now 2017-Dec-11 19:16 UTC.
Position N 34°47' E 139°14'.

Length 80 m; draft 5.6 m.

Type: Cargo ship. MMSI: 431600768.

Date/timePositionNaut miles runAvg speedWind from/ knotsBaromVisibWave heightAir tempDewpointWater temp
2017-Dec-11 16:09N 34°47' E 139°14'312.2
2017-Dec-11 15:56N 34°45' E 139°12'512.1
2017-Dec-11 15:30N 34°43' E 139°06'811.6
2017-Dec-11 14:51N 34°37' E 138°60'411.4
2017-Dec-11 14:30N 34°35' E 138°56'  
2017-Dec-07 08:55N 35°00' E 139°28'4 9.5
2017-Dec-07 08:29N 35°02' E 139°32'511.2
2017-Dec-07 08:01N 35°05' E 139°38'611.7
2017-Dec-07 07:31N 35°09' E 139°43'510.8
2017-Dec-07 07:01N 35°14' E 139°46'510.5
2017-Dec-07 06:30N 35°19' E 139°43'510.1
2017-Dec-07 06:00N 35°24' E 139°42'4 8.4
2017-Dec-07 05:31N 35°27' E 139°40'1 2.6
2017-Dec-07 05:01N 35°29' E 139°40'0 0.0
2017-Dec-07 04:31N 35°29' E 139°40'0 0.0
2017-Dec-07 04:01N 35°29' E 139°40'0 0.0
2017-Dec-07 03:31N 35°29' E 139°40'0 0.0
2017-Dec-07 03:00N 35°29' E 139°40'0 0.0
2017-Dec-07 02:31N 35°29' E 139°40'0 0.0
2017-Dec-07 02:01N 35°29' E 139°40'0 0.0
2017-Dec-07 01:30N 35°29' E 139°40'3 5.2
2017-Dec-07 01:00N 35°27' E 139°42'3 6.7
2017-Dec-07 00:31N 35°30' E 139°43'0 0.9
2017-Dec-07 00:00N 35°30' E 139°43'0 0.0
2017-Dec-06 23:30N 35°30' E 139°43'0 0.0
2017-Dec-06 23:01N 35°30' E 139°43'1 2.7
2017-Dec-06 22:31N 35°30' E 139°45'611.0
2017-Dec-06 22:00N 35°31' E 139°51'612.2
2017-Dec-06 21:30N 35°33' E 139°58'510.9
2017-Dec-06 21:00N 35°36' E 140°04'  
2017-Dec-02 03:51N 34°35' E 138°49'512.0
2017-Dec-02 03:26N 34°35' E 138°55'812.2
2017-Dec-02 02:47N 34°41' E 139°02'612.3
2017-Dec-02 02:16N 34°46' E 139°07'2211.5
2017-Dec-02 00:23N 34°59' E 139°27'411.1
2017-Dec-02 00:01N 35°01' E 139°32'612.0
2017-Dec-01 23:30N 35°04' E 139°38'612.6
2017-Dec-01 23:01N 35°09' E 139°43'612.3
2017-Dec-01 22:30N 35°15' E 139°46'5 9.3
2017-Dec-01 22:01N 35°18' E 139°42'2 3.8
2017-Dec-01 21:31N 35°16' E 139°41'0 0.1
2017-Dec-01 21:00N 35°16' E 139°41'0 0.1
2017-Dec-01 20:30N 35°16' E 139°41'0 0.0
2017-Dec-01 20:00N 35°16' E 139°41'0 0.0
2017-Dec-01 19:30N 35°16' E 139°41'0 0.0
2017-Dec-01 19:00N 35°16' E 139°41'0 0.0
2017-Dec-01 18:30N 35°16' E 139°41'0 0.0
2017-Dec-01 18:00N 35°16' E 139°41'0 0.0
2017-Dec-01 17:30N 35°16' E 139°41'0 0.0
2017-Dec-01 17:00N 35°16' E 139°41'0 0.0
2017-Dec-01 16:30N 35°16' E 139°41'  
Track history (hours):
 
Tides and Currents Weather Stations Pressure Air Temp Water Temp Dewpoint Dewpoint Depression Visibility Wind Speed Wind Dir Waves Ship Positions

Tenoumaru

Last reported at 2017-Dec-11 16:09 UTC. Time now 2017-Dec-11 19:16 UTC.
Position N 34°47' E 139°14'.

Length 80 m; draft 5.6 m.

Type: Cargo ship. MMSI: 431600768.

Date/timePositionNaut miles runAvg speedWind from/ knotsBaromVisibWave heightAir tempDewpointWater temp
2017-Dec-11 16:09N 34°47' E 139°14'312.2
2017-Dec-11 15:56N 34°45' E 139°12'512.1
2017-Dec-11 15:30N 34°43' E 139°06'811.6
2017-Dec-11 14:51N 34°37' E 138°60'411.4
2017-Dec-11 14:30N 34°35' E 138°56'  
2017-Dec-07 08:55N 35°00' E 139°28'4 9.5
2017-Dec-07 08:29N 35°02' E 139°32'511.2
2017-Dec-07 08:01N 35°05' E 139°38'611.7
2017-Dec-07 07:31N 35°09' E 139°43'510.8
2017-Dec-07 07:01N 35°14' E 139°46'510.5
2017-Dec-07 06:30N 35°19' E 139°43'510.1
2017-Dec-07 06:00N 35°24' E 139°42'4 8.4
2017-Dec-07 05:31N 35°27' E 139°40'1 2.6
2017-Dec-07 05:01N 35°29' E 139°40'0 0.0
2017-Dec-07 04:31N 35°29' E 139°40'0 0.0
2017-Dec-07 04:01N 35°29' E 139°40'0 0.0
2017-Dec-07 03:31N 35°29' E 139°40'0 0.0
2017-Dec-07 03:00N 35°29' E 139°40'0 0.0
2017-Dec-07 02:31N 35°29' E 139°40'0 0.0
2017-Dec-07 02:01N 35°29' E 139°40'0 0.0
2017-Dec-07 01:30N 35°29' E 139°40'3 5.2
2017-Dec-07 01:00N 35°27' E 139°42'3 6.7
2017-Dec-07 00:31N 35°30' E 139°43'0 0.9
2017-Dec-07 00:00N 35°30' E 139°43'0 0.0
2017-Dec-06 23:30N 35°30' E 139°43'0 0.0
2017-Dec-06 23:01N 35°30' E 139°43'1 2.7
2017-Dec-06 22:31N 35°30' E 139°45'611.0
2017-Dec-06 22:00N 35°31' E 139°51'612.2
2017-Dec-06 21:30N 35°33' E 139°58'510.9
2017-Dec-06 21:00N 35°36' E 140°04'  
2017-Dec-02 03:51N 34°35' E 138°49'512.0
2017-Dec-02 03:26N 34°35' E 138°55'812.2
2017-Dec-02 02:47N 34°41' E 139°02'612.3
2017-Dec-02 02:16N 34°46' E 139°07'2211.5
2017-Dec-02 00:23N 34°59' E 139°27'411.1
2017-Dec-02 00:01N 35°01' E 139°32'612.0
2017-Dec-01 23:30N 35°04' E 139°38'612.6
2017-Dec-01 23:01N 35°09' E 139°43'612.3
2017-Dec-01 22:30N 35°15' E 139°46'5 9.3
2017-Dec-01 22:01N 35°18' E 139°42'2 3.8
2017-Dec-01 21:31N 35°16' E 139°41'0 0.1
2017-Dec-01 21:00N 35°16' E 139°41'0 0.1
2017-Dec-01 20:30N 35°16' E 139°41'0 0.0
2017-Dec-01 20:00N 35°16' E 139°41'0 0.0
2017-Dec-01 19:30N 35°16' E 139°41'0 0.0
2017-Dec-01 19:00N 35°16' E 139°41'0 0.0
2017-Dec-01 18:30N 35°16' E 139°41'0 0.0
2017-Dec-01 18:00N 35°16' E 139°41'0 0.0
2017-Dec-01 17:30N 35°16' E 139°41'0 0.0
2017-Dec-01 17:00N 35°16' E 139°41'0 0.0
2017-Dec-01 16:30N 35°16' E 139°41'  

Dump ship's entire track history